Time;durP1;ratioP1;P1;durP2;ratioP2;P2;SDS_P1;SDS_P2;PMS_P1;PMS_P2;Temp;Humidity;BMP_temperature;BMP_pressure;BME280_temperature;BME280_humidity;BME280_pressure;Samples;Min_cycle;Max_cycle;Signal;HPM_P1;HPM_P2
2021/12/17 00:00:17;;;;;;;12.30;4.90;;;;;;;4.09;77.47;101468.56;103068;1321;25485;-78
2021/12/17 00:05:43;;;;;;;14.50;5.60;;;;;;;4.06;77.58;101466.37;103186;1322;25278;-80
2021/12/17 00:08:11;;;;;;;14.50;4.70;;;;;;;4.09;77.59;101465.75;102883;1323;22727;-79
2021/12/17 00:10:38;;;;;;;12.70;6.00;;;;;;;4.09;77.48;101462.77;102985;1322;24329;-78
2021/12/17 00:13:06;;;;;;;17.60;6.10;;;;;;;4.08;77.66;101465.03;103138;1322;22586;-79
2021/12/17 00:15:33;;;;;;;17.30;6.90;;;;;;;4.08;77.67;101466.94;103134;1320;22590;-78
2021/12/17 00:18:07;;;;;;;18.70;6.20;;;;;;;4.06;77.49;101462.84;103656;1319;25252;-75
2021/12/17 00:40:12;;;;;;;19.30;6.50;;;;;;;4.02;77.51;101463.92;103133;1322;23994;-77
2021/12/17 00:48:36;;;;;;;17.10;6.20;;;;;;;3.95;77.55;101479.89;103383;1318;22813;-77
2021/12/17 00:54:03;;;;;;;15.30;5.60;;;;;;;3.89;77.72;101485.59;103509;1318;22906;-77
2021/12/17 00:56:30;;;;;;;17.60;5.70;;;;;;;3.85;77.79;101479.73;103524;1319;23976;-80
2021/12/17 00:58:57;;;;;;;16.00;5.30;;;;;;;3.84;77.92;101476.35;103417;1319;25288;-79
2021/12/17 01:01:25;;;;;;;22.30;7.00;;;;;;;3.86;78.00;101475.05;103133;1319;25312;-79
2021/12/17 01:03:54;;;;;;;17.00;5.80;;;;;;;3.88;77.98;101471.98;103194;1319;25333;-79
2021/12/17 01:06:22;;;;;;;12.80;4.60;;;;;;;3.88;77.97;101467.63;103265;1317;22617;-77
2021/12/17 01:08:50;;;;;;;14.10;4.90;;;;;;;3.90;77.92;101470.98;103148;1324;22626;-76
2021/12/17 01:11:21;;;;;;;18.70;6.30;;;;;;;3.90;77.88;101467.70;103071;1324;25239;-79
2021/12/17 01:14:06;;;;;;;18.10;6.60;;;;;;;3.89;77.77;101469.93;102835;1324;22647;-78
2021/12/17 01:16:54;;;;;;;13.50;5.30;;;;;;;3.86;77.92;101472.45;102864;1322;22610;-82
2021/12/17 01:43:11;;;;;;;18.80;6.20;;;;;;;3.87;78.01;101478.55;103289;1317;26503;-76
2021/12/17 01:45:40;;;;;;;17.10;5.10;;;;;;;3.88;77.97;101483.48;103333;1317;26524;-77
2021/12/17 01:48:12;;;;;;;19.60;5.20;;;;;;;3.85;77.90;101479.38;103416;1317;24279;-77
2021/12/17 02:01:39;;;;;;;21.30;6.20;;;;;;;3.95;77.94;101471.19;103728;1315;22589;-78
2021/12/17 02:04:06;;;;;;;14.80;5.10;;;;;;;3.97;78.07;101467.60;103482;1318;22551;-78
2021/12/17 02:06:36;;;;;;;14.10;5.40;;;;;;;4.02;78.06;101472.63;103410;1318;22811;-79
2021/12/17 02:12:34;;;;;;;19.80;4.90;;;;;;;3.99;77.68;101457.54;103215;1318;24245;-80
2021/12/17 02:31:55;;;;;;;19.10;5.30;;;;;;;3.91;77.89;101433.56;102845;1324;22608;-78
2021/12/17 02:37:13;;;;;;;18.50;4.90;;;;;;;3.92;78.01;101430.81;102941;1324;26505;-75
2021/12/17 02:40:21;;;;;;;16.60;4.70;;;;;;;3.92;77.86;101428.73;103057;1316;22624;-76
2021/12/17 02:45:32;;;;;;;16.40;4.60;;;;;;;3.97;77.89;101430.47;103281;1318;22781;-75
2021/12/17 02:48:07;;;;;;;17.80;4.80;;;;;;;3.94;77.71;101429.52;103418;1317;24366;-76
2021/12/17 02:50:41;;;;;;;15.60;5.00;;;;;;;3.94;77.87;101431.61;103399;1318;25278;-75
2021/12/17 02:53:09;;;;;;;17.60;5.10;;;;;;;3.94;77.68;101426.89;103182;1324;24316;-75
2021/12/17 02:55:41;;;;;;;19.60;5.60;;;;;;;3.93;77.84;101426.34;102661;1330;22581;-78
2021/12/17 02:58:09;;;;;;;16.00;6.80;;;;;;;3.92;77.83;101431.02;102728;1329;22598;-76
2021/12/17 03:00:40;;;;;;;24.00;5.40;;;;;;;3.90;77.78;101430.94;102321;1328;24235;-76
2021/12/17 03:03:09;;;;;;;16.00;4.70;;;;;;;3.89;77.85;101430.90;102773;1328;24203;-81
2021/12/17 03:05:39;;;;;;;15.90;4.60;;;;;;;3.92;77.85;101437.83;102713;1328;25375;-82
2021/12/17 03:08:11;;;;;;;13.80;5.00;;;;;;;3.97;77.96;101434.13;102552;1328;26541;-80
2021/12/17 03:10:39;;;;;;;20.40;5.30;;;;;;;4.02;77.83;101428.38;102582;1322;25364;-76
2021/12/17 03:13:06;;;;;;;15.60;4.70;;;;;;;4.03;77.67;101428.58;103023;1317;25252;-76
2021/12/17 03:15:39;;;;;;;16.10;5.00;;;;;;;4.03;77.65;101423.02;103793;1317;25496;-76
2021/12/17 03:23:39;;;;;;;16.00;5.40;;;;;;;3.94;77.57;101422.89;103687;1316;24244;-76
2021/12/17 03:26:09;;;;;;;17.90;4.50;;;;;;;3.93;77.85;101422.50;103531;1317;25362;-76
2021/12/17 03:28:38;;;;;;;21.50;4.80;;;;;;;3.94;77.78;101422.55;103460;1316;26515;-75
2021/12/17 03:31:07;;;;;;;16.10;4.60;;;;;;;3.94;77.77;101412.92;103290;1317;24286;-76
2021/12/17 03:33:38;;;;;;;14.50;4.00;;;;;;;3.94;77.62;101411.74;103535;1317;25253;-76
2021/12/17 03:36:05;;;;;;;14.70;4.80;;;;;;;3.93;77.71;101407.34;103611;1317;23201;-76
2021/12/17 03:38:32;;;;;;;15.50;4.10;;;;;;;3.96;77.82;101408.12;103385;1317;23128;-76
2021/12/17 03:43:57;;;;;;;12.30;3.90;;;;;;;3.97;77.23;101404.50;103515;1314;25422;-76
2021/12/17 03:46:46;;;;;;;18.40;4.50;;;;;;;3.95;77.42;101410.89;103665;1316;22598;-76
2021/12/17 03:49:15;;;;;;;24.80;5.50;;;;;;;3.98;77.46;101407.30;103402;1317;25249;-75
2021/12/17 03:51:50;;;;;;;15.00;3.70;;;;;;;3.96;77.05;101396.98;103560;1316;25269;-75
2021/12/17 03:54:18;;;;;;;17.50;4.80;;;;;;;3.93;77.12;101391.46;103731;1316;25303;-74
2021/12/17 03:56:46;;;;;;;14.50;4.40;;;;;;;3.93;77.07;101386.77;103670;1318;25860;-75
2021/12/17 03:59:13;;;;;;;17.60;4.80;;;;;;;3.95;77.04;101391.17;103399;1317;24228;-75
2021/12/17 04:01:41;;;;;;;17.50;4.20;;;;;;;3.89;76.94;101385.77;103226;1317;24346;-75
2021/12/17 04:04:08;;;;;;;10.50;3.60;;;;;;;3.91;77.18;101399.95;103567;1315;25384;-75
2021/12/17 04:06:36;;;;;;;14.10;4.30;;;;;;;3.90;77.20;101400.61;103253;1316;22593;-76
2021/12/17 04:09:04;;;;;;;15.60;4.40;;;;;;;3.89;77.04;101393.61;103621;1317;22560;-76
2021/12/17 04:11:54;;;;;;;14.50;4.10;;;;;;;3.90;77.14;101387.52;103554;1317;25248;-77
2021/12/17 04:14:33;;;;;;;15.30;3.70;;;;;;;3.93;77.12;101385.17;103429;1317;25411;-76
2021/12/17 04:17:05;;;;;;;15.10;3.90;;;;;;;3.89;77.01;101381.22;103626;1315;24188;-78
2021/12/17 04:19:34;;;;;;;13.80;3.70;;;;;;;3.88;77.03;101374.92;103544;1316;25332;-77
2021/12/17 04:22:02;;;;;;;11.90;4.10;;;;;;;3.82;76.86;101381.52;103581;1317;25297;-77
2021/12/17 04:24:30;;;;;;;17.50;4.50;;;;;;;3.79;77.16;101382.98;103446;1309;22795;-75
2021/12/17 04:26:57;;;;;;;14.60;4.90;;;;;;;3.79;77.22;101390.79;103540;1316;22637;-76
2021/12/17 04:29:25;;;;;;;14.70;4.00;;;;;;;3.77;77.14;101389.53;103603;1313;23130;-74
2021/12/17 04:31:55;;;;;;;16.40;4.50;;;;;;;3.75;77.04;101388.76;103234;1317;25429;-76
2021/12/17 04:34:24;;;;;;;13.00;3.20;;;;;;;3.74;77.15;101392.04;103660;1317;26537;-76
2021/12/17 04:36:55;;;;;;;9.00;3.10;;;;;;;3.72;77.19;101386.23;103355;1317;24312;-77
2021/12/17 04:39:29;;;;;;;14.50;4.10;;;;;;;3.73;77.27;101395.65;103238;1318;22562;-77
2021/12/17 04:42:01;;;;;;;19.30;4.90;;;;;;;3.69;77.08;101389.06;103600;1315;24209;-76
2021/12/17 04:44:35;;;;;;;12.90;3.60;;;;;;;3.69;77.19;101391.69;103257;1316;25228;-76
2021/12/17 04:57:56;;;;;;;13.60;3.50;;;;;;;3.62;77.41;101410.44;103000;1321;25234;-75
2021/12/17 05:00:29;;;;;;;14.40;3.40;;;;;;;3.59;77.41;101406.30;103101;1322;24416;-76
2021/12/17 05:03:13;;;;;;;17.30;4.50;;;;;;;3.55;77.54;101404.45;103006;1323;23403;-75
2021/12/17 05:05:42;;;;;;;16.60;4.20;;;;;;;3.53;77.58;101411.14;103378;1317;25294;-75
2021/12/17 05:08:19;;;;;;;12.20;4.20;;;;;;;3.52;77.64;101419.66;103480;1317;25342;-75
2021/12/17 05:11:28;;;;;;;15.10;4.00;;;;;;;3.55;77.67;101421.14;103347;1317;24364;-77
2021/12/17 05:21:39;;;;;;;13.90;3.80;;;;;;;3.52;77.68;101444.56;103639;1314;25247;-79
2021/12/17 05:24:06;;;;;;;15.30;4.80;;;;;;;3.48;77.71;101453.30;103501;1316;23932;-83
2021/12/17 05:26:33;;;;;;;17.40;4.70;;;;;;;3.42;77.71;101449.78;103434;1316;22571;-78
2021/12/17 05:29:00;;;;;;;17.50;4.50;;;;;;;3.40;77.90;101450.02;103422;1316;25312;-78
2021/12/17 05:31:31;;;;;;;15.50;5.70;;;;;;;3.36;78.02;101440.33;103050;1321;22664;-76
2021/12/17 05:33:59;;;;;;;18.00;4.30;;;;;;;3.39;77.97;101443.73;103158;1322;22607;-78
2021/12/17 05:36:32;;;;;;;14.50;3.90;;;;;;;3.30;77.74;101443.06;103193;1322;25490;-78
2021/12/17 05:39:04;;;;;;;12.50;4.50;;;;;;;3.22;77.98;101437.38;103207;1322;22569;-78
2021/12/17 05:41:32;;;;;;;21.40;4.80;;;;;;;3.21;78.19;101429.84;103192;1322;22596;-77
2021/12/17 05:44:39;;;;;;;12.30;3.80;;;;;;;3.22;78.18;101423.63;102950;1327;22579;-78
2021/12/17 05:47:07;;;;;;;20.90;5.50;;;;;;;3.23;78.15;101419.83;101965;1334;24395;-82
2021/12/17 05:49:34;;;;;;;16.80;5.70;;;;;;;3.28;78.17;101415.65;101948;1330;22601;-85
2021/12/17 05:52:02;;;;;;;18.40;4.60;;;;;;;3.32;78.20;101405.70;102610;1329;23999;-76
2021/12/17 05:54:30;;;;;;;15.00;4.90;;;;;;;3.41;78.06;101403.25;102516;1330;22660;-76
2021/12/17 05:56:59;;;;;;;13.70;4.60;;;;;;;3.40;77.72;101400.23;102133;1329;22629;-76
2021/12/17 05:59:33;;;;;;;15.20;3.80;;;;;;;3.41;77.97;101404.11;102562;1328;25399;-75
2021/12/17 06:02:07;;;;;;;13.40;4.00;;;;;;;3.43;77.76;101413.27;101833;1332;22554;-76
2021/12/17 06:04:37;;;;;;;17.20;3.70;;;;;;;3.38;77.66;101424.72;101867;1327;22634;-77
2021/12/17 06:07:07;;;;;;;10.80;3.90;;;;;;;3.36;77.81;101427.09;102559;1324;22597;-80
2021/12/17 06:09:38;;;;;;;18.40;4.60;;;;;;;3.41;77.88;101429.69;103014;1323;22590;-78
2021/12/17 06:12:11;;;;;;;11.30;3.80;;;;;;;3.43;77.80;101427.19;103335;1324;22539;-77
2021/12/17 06:14:39;;;;;;;14.30;4.60;;;;;;;3.42;77.69;101429.05;102946;1324;225017;-77
2021/12/17 06:17:07;;;;;;;16.50;4.70;;;;;;;3.45;77.60;101428.14;103156;1329;23393;-75
2021/12/17 06:19:39;;;;;;;17.10;5.70;;;;;;;3.42;77.57;101424.52;102951;1324;25262;-76
2021/12/17 06:22:07;;;;;;;14.50;5.60;;;;;;;3.43;77.58;101430.66;103425;1322;26525;-77
2021/12/17 06:24:35;;;;;;;16.20;4.80;;;;;;;3.42;77.59;101433.40;103463;1321;24232;-75
2021/12/17 06:27:02;;;;;;;14.60;4.30;;;;;;;3.44;77.75;101434.35;102905;1323;25254;-76
2021/12/17 06:29:29;;;;;;;14.60;4.30;;;;;;;3.47;77.54;101436.02;103023;1323;22599;-75
2021/12/17 06:32:03;;;;;;;13.80;4.20;;;;;;;3.44;77.48;101432.79;103049;1323;25379;-76
2021/12/17 06:34:31;;;;;;;12.80;4.40;;;;;;;3.46;77.55;101429.70;102646;1317;22581;-77
2021/12/17 06:36:58;;;;;;;22.50;5.30;;;;;;;3.43;77.41;101429.10;103306;1316;24159;-75
2021/12/17 06:39:26;;;;;;;19.60;5.20;;;;;;;3.39;77.52;101431.21;103571;1317;22592;-77
2021/12/17 06:41:53;;;;;;;13.20;3.60;;;;;;;3.42;77.61;101423.64;103317;1316;22595;-77
2021/12/17 06:44:24;;;;;;;21.90;4.70;;;;;;;3.43;77.32;101420.21;103172;1316;22610;-76
2021/12/17 07:21:15;;;;;;;16.40;4.90;;;;;;;3.11;78.00;101439.55;103152;1322;23356;-77
2021/12/17 07:34:07;;;;;;;13.30;4.40;;;;;;;3.25;78.29;101459.05;103285;1318;25515;-75
2021/12/17 07:39:08;;;;;;;20.80;5.90;;;;;;;3.21;78.05;101463.45;103392;1317;22637;-74
2021/12/17 07:42:11;;;;;;;9.50;4.50;;;;;;;3.16;78.16;101466.40;103295;1318;22599;-74
2021/12/17 07:44:37;;;;;;;19.00;5.00;;;;;;;3.15;78.11;101469.80;103649;1317;26959;-75
2021/12/17 07:47:27;;;;;;;18.50;6.50;;;;;;;3.12;78.30;101465.34;104260;1318;24335;-75
2021/12/17 07:50:13;;;;;;;13.10;4.50;;;;;;;3.14;78.41;101475.17;103674;1311;22676;-75
2021/12/17 07:53:00;;;;;;;17.10;6.40;;;;;;;3.16;78.59;101473.17;103972;1318;22727;-74
2021/12/17 07:55:30;;;;;;;15.60;7.20;;;;;;;3.21;78.45;101474.96;104314;1318;24227;-74
2021/12/17 07:57:57;;;;;;;12.30;4.80;;;;;;;3.25;78.18;101486.90;103577;1318;25530;-74
2021/12/17 08:00:31;;;;;;;15.80;5.80;;;;;;;3.22;78.28;101489.77;103784;1317;22612;-74
2021/12/17 08:02:59;;;;;;;13.10;5.50;;;;;;;3.29;78.42;101493.16;103267;1316;25304;-75
2021/12/17 08:05:47;;;;;;;22.50;6.20;;;;;;;3.30;78.16;101497.55;103617;1317;25412;-77
2021/12/17 08:08:14;;;;;;;14.40;5.30;;;;;;;3.28;78.13;101497.84;103630;1317;25219;-78
2021/12/17 08:10:43;;;;;;;13.10;5.60;;;;;;;3.31;78.21;101504.20;103577;1317;22573;-76
2021/12/17 08:13:18;;;;;;;15.60;6.70;;;;;;;3.33;78.11;101508.29;104398;1322;22810;-77
2021/12/17 08:16:01;;;;;;;14.40;5.50;;;;;;;3.35;78.22;101509.74;103162;1321;24220;-74
2021/12/17 08:26:54;;;;;;;18.00;6.80;;;;;;;3.42;77.83;101515.76;102905;1327;24853;-75
2021/12/17 08:29:27;;;;;;;13.90;6.60;;;;;;;3.41;78.17;101521.99;102691;1328;22580;-76
2021/12/17 08:31:56;;;;;;;17.70;6.80;;;;;;;3.43;77.90;101522.08;103047;1321;25259;-79
2021/12/17 08:34:29;;;;;;;19.60;6.50;;;;;;;3.45;78.04;101527.20;102873;1322;22587;-75
2021/12/17 08:36:56;;;;;;;15.00;6.90;;;;;;;3.52;77.80;101527.83;103191;1320;22674;-78
2021/12/17 08:39:29;;;;;;;13.80;5.70;;;;;;;3.57;77.73;101527.46;103217;1319;25006;-76
2021/12/17 08:41:59;;;;;;;15.70;5.80;;;;;;;3.52;77.20;101526.42;103154;1318;25232;-76
2021/12/17 08:44:28;;;;;;;14.00;6.20;;;;;;;3.47;77.37;101529.55;103508;1317;22730;-76
2021/12/17 08:47:24;;;;;;;12.50;4.80;;;;;;;3.47;77.41;101519.45;103672;1317;22565;-75
2021/12/17 08:49:53;;;;;;;14.10;5.80;;;;;;;3.44;77.22;101524.08;103572;1316;25815;-75
2021/12/17 08:52:22;;;;;;;17.60;6.70;;;;;;;3.46;77.41;101522.04;103290;1318;23251;-77
2021/12/17 08:54:49;;;;;;;16.20;6.60;;;;;;;3.50;77.43;101521.45;103411;1317;22581;-74
2021/12/17 08:57:17;;;;;;;16.00;6.60;;;;;;;3.57;77.49;101517.55;103396;1318;25258;-75
2021/12/17 08:59:44;;;;;;;14.60;5.50;;;;;;;3.57;76.93;101510.60;103400;1318;23980;-74
2021/12/17 09:02:11;;;;;;;15.90;6.20;;;;;;;3.50;76.96;101503.19;103542;1317;23949;-76
2021/12/17 09:04:42;;;;;;;10.80;5.80;;;;;;;3.48;77.04;101502.59;103482;1317;22583;-74
2021/12/17 09:07:11;;;;;;;15.70;5.40;;;;;;;3.50;77.01;101498.13;103520;1318;22602;-75
2021/12/17 09:09:39;;;;;;;18.60;6.90;;;;;;;3.48;77.20;101494.73;103573;1318;22579;-74
2021/12/17 09:12:19;;;;;;;16.30;5.30;;;;;;;3.55;77.23;101492.90;103542;1317;22590;-74
2021/12/17 09:14:46;;;;;;;14.50;5.50;;;;;;;3.54;77.14;101493.59;103591;1317;22930;-75
2021/12/17 09:17:39;;;;;;;16.60;6.50;;;;;;;3.56;77.18;101498.37;103307;1317;22638;-76
2021/12/17 09:20:08;;;;;;;12.40;5.90;;;;;;;3.57;77.15;101494.57;103244;1319;25520;-74
2021/12/17 09:22:35;;;;;;;17.50;5.30;;;;;;;3.55;76.98;101488.73;103643;1318;23387;-75
2021/12/17 09:25:05;;;;;;;13.20;5.90;;;;;;;3.54;77.10;101488.70;103392;1317;22709;-76
2021/12/17 09:27:57;;;;;;;16.30;6.30;;;;;;;3.56;77.22;101483.71;103634;1317;25514;-75
2021/12/17 09:30:29;;;;;;;13.40;6.10;;;;;;;3.60;77.14;101481.77;103362;1317;22602;-74
2021/12/17 09:32:56;;;;;;;14.30;5.40;;;;;;;3.62;77.05;101482.71;103470;1317;25863;-76
2021/12/17 09:35:24;;;;;;;14.90;6.20;;;;;;;3.63;76.96;101479.26;104490;1317;23058;-81
2021/12/17 09:37:53;;;;;;;17.30;6.30;;;;;;;3.66;76.98;101477.29;104717;1312;25924;-74
2021/12/17 09:40:21;;;;;;;17.00;6.60;;;;;;;3.66;76.97;101480.77;103463;1313;22590;-79
2021/12/17 09:42:49;;;;;;;11.80;5.50;;;;;;;3.65;76.60;101489.11;103746;1313;22937;-79
2021/12/17 09:45:18;;;;;;;14.50;6.00;;;;;;;3.65;76.85;101484.40;103606;1312;22578;-80
2021/12/17 09:47:46;;;;;;;13.70;5.50;;;;;;;3.67;76.71;101486.91;103832;1312;24335;-80
2021/12/17 09:50:18;;;;;;;16.60;6.20;;;;;;;3.66;76.79;101487.23;103535;1317;22688;-80
2021/12/17 09:52:46;;;;;;;16.00;6.00;;;;;;;3.66;76.84;101484.46;103334;1317;23687;-80
2021/12/17 09:55:13;;;;;;;15.00;6.70;;;;;;;3.67;76.73;101489.00;103541;1317;22694;-79
2021/12/17 09:57:40;;;;;;;18.50;6.10;;;;;;;3.64;76.65;101490.63;103609;1319;24235;-78
2021/12/17 10:00:13;;;;;;;16.80;6.10;;;;;;;3.68;76.97;101485.92;103450;1317;22606;-81
2021/12/17 10:02:45;;;;;;;13.20;6.10;;;;;;;3.76;76.85;101478.52;103658;1317;23132;-79
2021/12/17 10:05:24;;;;;;;18.50;6.70;;;;;;;3.78;76.51;101473.89;103468;1317;23429;-80
2021/12/17 10:07:58;;;;;;;15.00;6.10;;;;;;;3.79;76.61;101471.68;103666;1317;25629;-80
2021/12/17 10:10:56;;;;;;;16.20;6.00;;;;;;;3.81;76.52;101473.66;103486;1317;25364;-79
2021/12/17 10:13:28;;;;;;;13.90;5.40;;;;;;;3.87;76.64;101474.76;103676;1315;25448;-79
2021/12/17 10:15:57;;;;;;;14.40;5.70;;;;;;;3.96;76.60;101476.61;103414;1317;24800;-79
2021/12/17 10:18:33;;;;;;;21.70;6.30;;;;;;;4.02;76.37;101477.88;103473;1316;25451;-78
2021/12/17 10:21:09;;;;;;;14.80;5.50;;;;;;;4.05;76.15;101480.80;103430;1317;24245;-78
2021/12/17 10:23:40;;;;;;;14.60;5.60;;;;;;;4.06;75.99;101478.71;103510;1317;23941;-78
2021/12/17 10:26:12;;;;;;;9.90;4.40;;;;;;;4.01;75.89;101475.58;103702;1317;24331;-78
2021/12/17 10:28:55;;;;;;;13.20;5.40;;;;;;;4.02;75.87;101477.52;103571;1317;24278;-78
2021/12/17 10:31:24;;;;;;;11.90;5.50;;;;;;;4.05;75.75;101474.30;103464;1317;24498;-80
2021/12/17 10:33:54;;;;;;;12.00;5.40;;;;;;;4.08;75.96;101471.83;103531;1312;22698;-79
2021/12/17 10:36:31;;;;;;;13.40;4.80;;;;;;;4.13;75.82;101468.67;104784;1317;22577;-79
2021/12/17 10:39:25;;;;;;;9.10;4.60;;;;;;;4.19;75.86;101462.78;103579;1316;24032;-79
2021/12/17 10:41:53;;;;;;;12.30;5.00;;;;;;;4.26;75.68;101455.86;103596;1315;23076;-79
2021/12/17 10:44:21;;;;;;;8.60;4.60;;;;;;;4.34;75.41;101459.45;103246;1312;26533;-78
2021/12/17 10:47:31;;;;;;;9.60;5.10;;;;;;;4.38;75.09;101451.39;103931;1315;24702;-79
2021/12/17 10:49:53;;;;;;;10.70;5.10;;;;;;;4.35;74.86;101452.67;103606;1316;22931;-79
2021/12/17 10:52:29;;;;;;;14.90;4.80;;;;;;;4.36;75.11;101454.45;103418;1317;22550;-80
2021/12/17 10:55:16;;;;;;;12.20;5.40;;;;;;;4.38;74.85;101444.58;103532;1313;25416;-80
2021/12/17 10:57:43;;;;;;;11.30;4.70;;;;;;;4.37;74.73;101446.45;103119;1318;24408;-79
2021/12/17 11:00:11;;;;;;;12.50;5.10;;;;;;;4.32;74.51;101446.83;103154;1321;25490;-81
2021/12/17 11:02:48;;;;;;;16.10;5.70;;;;;;;4.28;74.69;101447.58;102691;1321;22727;-79
2021/12/17 11:05:17;;;;;;;15.20;5.10;;;;;;;4.34;74.44;101444.98;102964;1322;24243;-80
2021/12/17 11:07:46;;;;;;;9.20;4.10;;;;;;;4.37;74.58;101446.29;102952;1324;23391;-80
2021/12/17 11:10:15;;;;;;;15.70;5.60;;;;;;;4.48;74.37;101444.39;103192;1321;22642;-79
2021/12/17 11:12:45;;;;;;;12.70;4.40;;;;;;;4.55;74.14;101441.46;102904;1321;22591;-80
2021/12/17 11:15:14;;;;;;;11.10;4.90;;;;;;;4.48;73.82;101438.08;103066;1318;25668;-80
2021/12/17 11:17:43;;;;;;;10.40;4.10;;;;;;;4.46;74.23;101431.41;103470;1315;25629;-81
2021/12/17 11:20:10;;;;;;;13.30;4.50;;;;;;;4.62;74.07;101423.38;103560;1318;22778;-80
2021/12/17 11:22:42;;;;;;;10.20;4.60;;;;;;;4.91;73.90;101427.77;103688;1318;24399;-79
2021/12/17 11:25:09;;;;;;;10.30;3.80;;;;;;;5.01;73.57;101424.21;103575;1318;22682;-79
2021/12/17 11:27:36;;;;;;;11.90;4.90;;;;;;;4.99;73.03;101423.64;103596;1318;26563;-80
2021/12/17 11:30:07;;;;;;;13.70;4.90;;;;;;;4.89;72.76;101430.83;103607;1318;24173;-79
2021/12/17 11:32:35;;;;;;;10.90;4.10;;;;;;;4.88;72.95;101431.67;103623;1317;22644;-80
2021/12/17 11:35:05;;;;;;;15.40;4.10;;;;;;;5.07;72.79;101434.88;103416;1319;27028;-77
2021/12/17 11:37:33;;;;;;;13.50;4.30;;;;;;;5.04;72.37;101428.48;103609;1316;23940;-76
2021/12/17 11:40:07;;;;;;;11.00;4.20;;;;;;;4.98;72.22;101424.13;103376;1322;24419;-76
2021/12/17 11:43:03;;;;;;;12.70;4.20;;;;;;;4.91;72.27;101425.48;103365;1316;26706;-78
2021/12/17 11:45:30;;;;;;;11.40;3.90;;;;;;;4.78;72.23;101425.09;103017;1322;25473;-79
2021/12/17 11:48:19;;;;;;;12.10;4.10;;;;;;;4.68;72.18;101431.94;102758;1326;25258;-80
2021/12/17 11:51:02;;;;;;;12.40;4.10;;;;;;;4.56;72.50;101430.66;102622;1325;22565;-78
2021/12/17 11:53:32;;;;;;;9.40;3.20;;;;;;;4.54;73.00;101437.77;102648;1322;24501;-79
2021/12/17 11:56:02;;;;;;;17.70;4.80;;;;;;;4.52;72.82;101436.30;102721;1326;22659;-78
2021/12/17 11:58:45;;;;;;;12.10;3.80;;;;;;;4.51;73.07;101434.00;103295;1315;24332;-76
2021/12/17 12:01:13;;;;;;;10.90;3.70;;;;;;;4.44;73.07;101440.23;103714;1322;22558;-74
2021/12/17 12:03:40;;;;;;;9.80;4.30;;;;;;;4.45;73.25;101438.16;103271;1320;22577;-80
2021/12/17 12:06:33;;;;;;;9.40;4.10;;;;;;;4.43;73.38;101423.83;103485;1317;22598;-79
2021/12/17 12:09:05;;;;;;;7.90;3.40;;;;;;;4.47;73.42;101427.23;104020;1312;22867;-76
2021/12/17 12:11:32;;;;;;;9.20;3.90;;;;;;;4.43;73.22;101421.01;103743;1317;22528;-75
2021/12/17 12:14:02;;;;;;;11.50;4.60;;;;;;;4.44;73.33;101420.70;103691;1317;24287;-76
2021/12/17 12:16:30;;;;;;;12.20;4.60;;;;;;;4.43;73.33;101426.27;102993;1322;22619;-77
2021/12/17 12:19:10;;;;;;;12.80;4.20;;;;;;;4.43;73.35;101419.80;102935;1324;24742;-76
2021/12/17 12:21:39;;;;;;;9.60;3.70;;;;;;;4.43;73.23;101424.51;102658;1326;22659;-75
2021/12/17 12:24:13;;;;;;;5.50;2.90;;;;;;;4.43;73.36;101419.79;102952;1326;22670;-76
2021/12/17 12:26:44;;;;;;;7.90;3.00;;;;;;;4.40;73.35;101416.73;102941;1319;23997;-75
2021/12/17 12:29:14;;;;;;;7.80;4.00;;;;;;;4.37;73.31;101415.06;102731;1324;23994;-76
2021/12/17 12:31:47;;;;;;;8.50;2.50;;;;;;;4.35;73.40;101412.38;102981;1317;22602;-77
2021/12/17 12:34:17;;;;;;;10.60;4.00;;;;;;;4.28;73.12;101408.14;103235;1318;22585;-76
2021/12/17 12:37:08;;;;;;;9.30;3.80;;;;;;;4.24;73.37;101405.39;103709;1316;22596;-76
2021/12/17 12:40:03;;;;;;;6.30;3.10;;;;;;;4.26;73.46;101406.84;103840;1315;24305;-77
2021/12/17 12:42:35;;;;;;;11.00;3.40;;;;;;;4.25;73.28;101399.83;103580;1317;23841;-75
2021/12/17 12:45:07;;;;;;;7.50;3.50;;;;;;;4.20;73.01;101403.00;103945;1315;22556;-76
2021/12/17 12:47:39;;;;;;;9.50;3.60;;;;;;;4.17;73.14;101405.50;103607;1318;22593;-77
2021/12/17 12:50:15;;;;;;;5.50;3.80;;;;;;;4.16;73.33;101404.79;103214;1322;22590;-77
2021/12/17 12:53:05;;;;;;;8.90;3.90;;;;;;;4.15;73.21;101409.27;103074;1316;22599;-75
2021/12/17 12:55:40;;;;;;;7.00;3.20;;;;;;;4.13;73.27;101416.19;103313;1320;22717;-75
2021/12/17 12:58:24;;;;;;;7.50;3.30;;;;;;;4.13;73.36;101421.59;103303;1322;23973;-76
2021/12/17 13:00:55;;;;;;;16.90;4.70;;;;;;;4.10;73.26;101417.32;103070;1316;22598;-81
2021/12/17 13:03:27;;;;;;;16.30;4.60;;;;;;;4.07;73.20;101417.39;103033;1321;25606;-75
2021/12/17 13:05:56;;;;;;;10.70;4.00;;;;;;;4.04;73.45;101429.14;102960;1317;25541;-76
2021/12/17 13:08:25;;;;;;;7.40;3.50;;;;;;;4.04;73.46;101420.08;103234;1315;26112;-77
2021/12/17 13:10:58;;;;;;;7.20;3.60;;;;;;;4.07;73.39;101415.83;103455;1317;22614;-77
2021/12/17 13:24:10;;;;;;;9.70;4.10;;;;;;;4.04;73.06;101443.42;103407;1317;23336;-77
2021/12/17 13:26:44;;;;;;;7.20;2.90;;;;;;;4.03;73.25;101435.20;103460;1317;22619;-77
2021/12/17 13:29:14;;;;;;;9.00;3.20;;;;;;;4.02;72.98;101434.31;103799;1317;22570;-76
2021/12/17 13:31:46;;;;;;;6.20;3.50;;;;;;;4.01;72.99;101440.71;103646;1316;22577;-77
2021/12/17 13:34:24;;;;;;;7.70;2.40;;;;;;;4.01;73.03;101449.77;103687;1317;23598;-77
2021/12/17 13:36:57;;;;;;;5.50;2.60;;;;;;;3.96;72.93;101443.34;103645;1316;24146;-77
2021/12/17 13:39:46;;;;;;;6.50;3.00;;;;;;;3.91;72.94;101431.65;103794;1316;22584;-76
2021/12/17 13:42:25;;;;;;;9.30;4.10;;;;;;;3.92;73.17;101446.02;103371;1317;23966;-78
2021/12/17 13:45:01;;;;;;;10.60;4.20;;;;;;;3.93;73.19;101453.36;103500;1315;22580;-77
2021/12/17 13:47:45;;;;;;;10.40;3.80;;;;;;;3.91;73.15;101443.84;103708;1317;23586;-76
2021/12/17 13:50:46;;;;;;;12.40;4.60;;;;;;;3.90;73.22;101439.45;103672;1317;23978;-76
2021/12/17 13:53:16;;;;;;;9.80;3.30;;;;;;;3.88;73.23;101440.45;103119;1316;22627;-77
2021/12/17 13:56:04;;;;;;;7.60;3.60;;;;;;;3.88;73.48;101444.81;103210;1322;23368;-77
2021/12/17 13:58:35;;;;;;;9.90;3.40;;;;;;;3.90;73.23;101433.70;103066;1319;22948;-76
2021/12/17 14:01:02;;;;;;;8.90;3.20;;;;;;;3.88;73.21;101431.55;103125;1323;24128;-76
2021/12/17 14:03:33;;;;;;;11.00;3.80;;;;;;;3.89;73.24;101432.81;102602;1326;22830;-77
2021/12/17 14:06:11;;;;;;;12.20;2.80;;;;;;;3.88;73.28;101430.52;102688;1326;22619;-75
2021/12/17 14:08:41;;;;;;;7.60;3.00;;;;;;;3.90;73.34;101434.79;102647;1326;24230;-75
2021/12/17 14:11:25;;;;;;;11.20;4.60;;;;;;;3.88;73.28;101436.44;102625;1326;22954;-75
2021/12/17 14:14:27;;;;;;;12.10;4.00;;;;;;;3.90;73.53;101435.64;102600;1326;203255;-76
2021/12/17 14:17:05;;;;;;;9.30;3.60;;;;;;;3.92;73.46;101440.23;102590;1326;22851;-75
2021/12/17 14:19:42;;;;;;;11.60;3.60;;;;;;;3.86;73.51;101437.76;103152;1317;25897;-75
2021/12/17 14:22:33;;;;;;;8.50;4.10;;;;;;;3.83;73.61;101444.12;103337;1318;22716;-76
2021/12/17 14:25:20;;;;;;;7.00;3.20;;;;;;;3.83;73.65;101442.17;103422;1317;23473;-75
2021/12/17 14:27:48;;;;;;;9.10;4.20;;;;;;;3.79;73.82;101431.42;103452;1317;22577;-75
2021/12/17 14:30:15;;;;;;;7.90;2.90;;;;;;;3.81;73.91;101438.27;103586;1317;25585;-76
2021/12/17 14:32:45;;;;;;;7.30;3.40;;;;;;;3.83;73.90;101446.36;103577;1319;22577;-77
2021/12/17 14:35:14;;;;;;;11.00;4.10;;;;;;;3.85;73.93;101446.62;103107;1323;22591;-77
2021/12/17 14:37:54;;;;;;;12.20;3.60;;;;;;;3.83;73.92;101442.72;103018;1321;22787;-79
2021/12/17 14:40:28;;;;;;;7.80;3.10;;;;;;;3.82;73.93;101443.56;103155;1322;22561;-79
2021/12/17 14:42:57;;;;;;;11.90;4.50;;;;;;;3.81;73.89;101451.02;103774;1320;22588;-77
2021/12/17 14:45:35;;;;;;;10.90;4.10;;;;;;;3.86;73.97;101460.06;103455;1323;22613;-77
2021/12/17 14:48:22;;;;;;;12.70;4.30;;;;;;;3.88;73.82;101457.51;103124;1322;25533;-76
2021/12/17 15:04:45;;;;;;;8.40;3.90;;;;;;;3.96;74.02;101452.23;103344;1316;24277;-77